Baker City, Oregon
Current Conditions -  °F | °C
As of 4:53 AM on Wednesday 22 Oct 2014 (Local Time) from KBKE Reporting Station
Overcast Overcast  
Wind Chill: 37°   Ceiling: 11000
Heat Index: 43°   Visibility: 10mi
Dew Point: 34°   Wind: 10mph
Humidity: 71%   Direction: 100°E
Pressure: 30.03"   Gusts: NA
Location:  44.77°N, 117.83°W
Report Text: KBKE 221153Z AUTO 10009KT 10SM OVC110 06/01 A3003 RMK AO2 SLP172 T00610011 10061 20000 58001
Loading
Personal Weather Stations






























Interactive Weather Map
Tropical Storm Tracking
New forecast layout! Learn more

10-Day Weather Forecast

Advertisements
Track Severe Weather on mobile